This is the latest recevied weather packets stored in our database for station/object KI4FRU. If no packets are shown the sender has not sent any weather packets the latest 10 day(s).
| Time | Temp. | Humidity | Pressure | Rain* | Wind** | Luminosity | Snow |
|---|---|---|---|---|---|---|---|
| 1777164261 | 17.22° C | 99% | 1049.9 hPa | 0 mm | - | 0 W/m² | - |
| 1777163956 | 17.22° C | 99% | 1049.6 hPa | 1.78 mm | - | 0 W/m² | - |
| 1777163650 | 17.22° C | 99% | 1049.7 hPa | 1.78 mm | - | 0 W/m² | - |
| 1777163345 | 17.22° C | 99% | 1049.7 hPa | 1.78 mm | - | 0 W/m² | - |
| 1777163043 | 17.22° C | 99% | 1049.7 hPa | 1.78 mm | - | 0 W/m² | - |
| 1777162737 | 17.22° C | 99% | 1049.9 hPa | 1.27 mm | - | 0 W/m² | - |
| 1777162437 | 17.22° C | 99% | 1049.7 hPa | 3.05 mm | - | 0 W/m² | - |
| 1777162131 | 17.22° C | 99% | 1049.9 hPa | 1.78 mm | - | 1 W/m² | - |
| 1777161827 | 17.22° C | 99% | 1049.9 hPa | 0 mm | - | 1 W/m² | - |
| 1777161524 | 17.22° C | 99% | 1049.7 hPa | 1.27 mm | - | 2 W/m² | - |
| 1777161220 | 17.22° C | 99% | 1049.8 hPa | 1.27 mm | - | 3 W/m² | - |
| 1777160916 | 17.22° C | 99% | 1049.8 hPa | 0 mm | - | 5 W/m² | - |
| 1777160611 | 17.22° C | 99% | 1049.8 hPa | 0 mm | - | 7 W/m² | - |
| 1777160308 | 17.22° C | 99% | 1049.8 hPa | 0 mm | - | 7 W/m² | - |
| 1777160004 | 17.22° C | 99% | 1049.8 hPa | 0 mm | - | 7 W/m² | - |
| 1777159700 | 17.22° C | 99% | 1049.9 hPa | 0 mm | - | 7 W/m² | - |
| 1777159395 | 17.22° C | 99% | 1049.9 hPa | 0 mm | - | 8 W/m² | - |
| 1777159092 | 17.22° C | 99% | 1049.6 hPa | 0 mm | - | 8 W/m² | - |
| 1777158783 | 17.22° C | 99% | 1049.7 hPa | 0 mm | - | 9 W/m² | - |
| 1777158482 | 17.22° C | 99% | 1049.8 hPa | 0 mm | - | 11 W/m² | - |
| 1777158178 | 17.22° C | 99% | 1049.7 hPa | 0 mm | - | 13 W/m² | - |
| 1777157874 | 17.22° C | 99% | 1049.8 hPa | 0 mm | - | 16 W/m² | - |
| 1777157570 | 17.22° C | 99% | 1049.8 hPa | 0 mm | - | 18 W/m² | - |
| 1777157266 | 17.22° C | 99% | 1049.8 hPa | 1.78 mm | - | 16 W/m² | - |
| 1777156966 | 17.22° C | 99% | 1049.7 hPa | 1.78 mm | - | 15 W/m² | - |
* Rain latest hour (hover to see other rain measurements)
** Current wind speed in m/s (hover to see current wind gust speed)